Terminal Aerodrome Forecast
Issued by NWS St Louis, MO

Home | Current Version | Previous Version | Text Only | Print | Product List | Glossary On
Versions: 1 2 3 4 5 6 7 8 9 10 11 12 13 14 15 16 17 18 19 20 21 22 23 24 25 26
856
FTUS43 KLSX 110522
TAFSTL
TAF
KSTL 110522Z 1106/1212 07004KT P6SM OVC060
     FM111600 04005KT P6SM SCT150
     FM120500 13004KT P6SM VCSH OVC050
     FM121000 16004KT P6SM OVC025=

USA.gov is the U.S. government's official web portal to all federal, state and local government web resources and services.